Aviation Digital Data Service (ADDS)

Output produced by METARs form (1954 UTC 31 January 2023)
found at http://www.aviationweather.gov/metar/data/
 
VTUK 311900Z 32006KT 9000 NSC 18/10 Q1012 NOSIG
VTUK 311800Z 30003KT 9000 NSC 17/11 Q1012 NOSIG
VTUK 311700Z 01002KT 9000 NSC 18/11 Q1013 NOSIG
VTUK 311600Z VRB01KT 9000 NSC 18/11 Q1013 NOSIG
VTUK 311500Z 11002KT 9000 NSC 21/10 Q1013 NOSIG
VTUK 311400Z 11003KT 9000 NSC 21/10 Q1013 NOSIG
VTUK 311300Z 11003KT 9000 NSC 22/09 Q1012 NOSIG
VTUK 311200Z 12003KT 9000 NSC 23/09 Q1011 NOSIG
VTUK 311100Z 14004KT 100V170 CAVOK 25/09 Q1011 NOSIG
VTUK 311000Z 10003KT 050V140 CAVOK 27/08 Q1010 NOSIG
VTUK 310900Z 11004KT 030V170 CAVOK 27/08 Q1010 NOSIG
VTUK 310800Z VRB03KT CAVOK 27/08 Q1011 NOSIG
VTUK 310700Z VRB03KT CAVOK 27/08 Q1012 NOSIG
VTUK 310600Z 01005KT 330V080 CAVOK 26/08 Q1014 NOSIG
VTUK 310500Z VRB04KT CAVOK 25/08 Q1015 NOSIG
VTUK 310400Z VRB04KT 9000 NSC 23/09 Q1016 NOSIG
VTUK 310300Z 01004KT 290V050 8000 NSC 21/09 Q1017 NOSIG
VTUK 310200Z 01003KT 310V060 7000 NSC 19/10 Q1017 NOSIG
VTUK 310100Z VRB02KT 6000 NSC 15/10 Q1016 NOSIG
VTUK 310000Z 33002KT 7000 NSC 12/09 Q1016 NOSIG
VTUK 302300Z 35001KT 7000 NSC 12/09 Q1015 NOSIG
VTUK 302200Z 36003KT 7000 NSC 12/09 Q1015 NOSIG
VTUK 302100Z 33002KT 7000 NSC 13/09 Q1015 NOSIG
VTUK 302000Z 00000KT 8000 NSC 14/09 Q1015 NOSIG
VTUK 301900Z 07003KT 8000 NSC 16/07 Q1015 NOSIG
TAF VTUK 311700Z 3118/0118 08005KT 8000 FEW030